Dallas, Texas
Current Conditions -  °F | °C
As of 4:53 AM on Thursday 27 Nov 2014 (Local Time) from KDAL Reporting Station
Clear Clear  
Wind Chill: 36°   Ceiling: Unl
Heat Index: 40°   Visibility: 10mi
Dew Point: 29°   Wind: 6mph
Humidity: 65%   Direction: 360°N
Pressure: 30.48"   Gusts: NA
Location:  32.78°N, 96.79°W
Report Text: KDAL 271053Z 36005KT 10SM CLR 04/M02 A3048 RMK AO2 SLP320 T00441017
Loading
Personal Weather Stations






























Interactive Weather Map New forecast layout! Learn more

10-Day Weather Forecast

Advertisements
Track Severe Weather on mobile